createdAt,value
2022-08-19T00:02:18.056Z,22.38
2022-08-19T00:04:48.182Z,22.43
2022-08-19T00:07:15.932Z,22.42
2022-08-19T00:09:43.460Z,22.39
2022-08-19T00:12:11.560Z,22.38
2022-08-19T00:14:40.470Z,22.36
2022-08-19T00:17:09.653Z,22.37
2022-08-19T00:19:38.171Z,22.38
2022-08-19T00:22:06.519Z,22.47
2022-08-19T00:24:34.045Z,22.48
2022-08-19T00:27:26.533Z,22.55
2022-08-19T00:29:52.530Z,22.55
2022-08-19T00:32:21.041Z,22.54
2022-08-19T00:34:48.498Z,22.53
2022-08-19T00:37:15.995Z,22.52
2022-08-19T00:39:43.586Z,22.49
2022-08-19T00:42:15.661Z,22.45
2022-08-19T00:44:44.395Z,22.48
2022-08-19T00:47:14.187Z,22.49
2022-08-19T00:49:50.049Z,22.41
2022-08-19T00:52:24.258Z,22.45
2022-08-19T00:54:54.201Z,22.46
2022-08-19T00:57:29.897Z,22.44
2022-08-19T01:00:03.098Z,22.43
2022-08-19T01:02:33.662Z,22.42
2022-08-19T01:05:03.935Z,22.39
2022-08-19T01:07:37.901Z,22.38
2022-08-19T01:10:08.901Z,22.35
2022-08-19T01:12:36.523Z,22.36
2022-08-19T01:15:05.797Z,22.35
2022-08-19T01:17:34.339Z,22.36
2022-08-19T01:20:01.944Z,22.33
2022-08-19T01:22:36.038Z,22.30
2022-08-19T01:25:04.445Z,22.27
2022-08-19T01:27:43.275Z,22.23
2022-08-19T01:30:15.704Z,22.21
2022-08-19T01:32:44.556Z,22.22
2022-08-19T01:35:18.160Z,22.22
2022-08-19T01:37:48.488Z,22.26
2022-08-19T01:40:17.200Z,22.28
2022-08-19T01:42:44.730Z,22.27
2022-08-19T01:45:12.298Z,22.31
2022-08-19T01:47:39.813Z,22.33
2022-08-19T01:50:10.248Z,22.36
2022-08-19T01:52:39.579Z,22.35
2022-08-19T01:55:10.184Z,22.40
2022-08-19T01:57:39.335Z,22.39
2022-08-19T02:00:11.497Z,22.35
2022-08-19T02:02:39.283Z,22.37
2022-08-19T02:05:10.647Z,22.35
2022-08-19T02:07:41.218Z,22.33
2022-08-19T02:10:16.626Z,22.33
2022-08-19T02:12:45.083Z,22.30
2022-08-19T02:15:13.175Z,22.35
2022-08-19T02:17:41.262Z,22.36
2022-08-19T02:20:10.418Z,22.38
2022-08-19T02:22:38.026Z,22.39
2022-08-19T02:25:06.210Z,22.35
2022-08-19T02:27:34.649Z,22.41
2022-08-19T02:30:02.622Z,22.41
2022-08-19T02:32:31.854Z,22.43
2022-08-19T02:34:59.352Z,22.46
2022-08-19T02:37:45.732Z,22.50
2022-08-19T02:40:13.759Z,22.50
2022-08-19T02:42:42.164Z,22.56
2022-08-19T02:45:10.532Z,22.53
2022-08-19T02:47:39.128Z,22.59
2022-08-19T02:50:08.217Z,22.61
2022-08-19T02:52:36.451Z,22.65
2022-08-19T02:55:04.997Z,22.68
2022-08-19T02:57:33.095Z,22.72
2022-08-19T03:00:00.620Z,22.73
2022-08-19T03:02:28.679Z,22.74
2022-08-19T03:04:56.230Z,22.76
2022-08-19T03:07:23.822Z,22.78
2022-08-19T03:09:54.116Z,22.85
2022-08-19T03:12:21.601Z,22.88
2022-08-19T03:14:49.241Z,22.89
2022-08-19T03:17:16.763Z,22.88
2022-08-19T03:19:44.476Z,22.86
2022-08-19T03:22:12.461Z,22.87
2022-08-19T03:24:40.289Z,22.88
2022-08-19T03:27:08.001Z,22.91
2022-08-19T03:29:43.969Z,22.99
2022-08-19T03:32:19.827Z,23.03
2022-08-19T03:34:59.552Z,23.03
2022-08-19T03:37:30.119Z,23.08
2022-08-19T03:39:57.631Z,23.18
2022-08-19T03:42:38.735Z,23.26
2022-08-19T03:45:13.847Z,23.29
2022-08-19T03:47:41.296Z,23.30
2022-08-19T03:50:12.107Z,23.28
2022-08-19T03:52:40.678Z,23.24
2022-08-19T03:55:13.030Z,23.26
2022-08-19T03:57:40.564Z,23.26
2022-08-19T04:00:13.082Z,23.25
2022-08-19T04:02:58.060Z,23.26
2022-08-19T04:05:29.845Z,23.38
2022-08-19T04:08:00.441Z,23.43
2022-08-19T04:10:29.459Z,23.48
2022-08-19T04:12:56.886Z,23.49
2022-08-19T04:15:24.406Z,23.53
2022-08-19T04:17:51.912Z,23.54
2022-08-19T04:20:19.578Z,23.56
2022-08-19T04:22:47.490Z,23.58
2022-08-19T04:25:17.021Z,23.57
2022-08-19T04:27:47.690Z,23.59
2022-08-19T04:30:16.249Z,23.62
2022-08-19T04:32:45.054Z,23.61
2022-08-19T04:35:16.727Z,23.61
2022-08-19T04:37:46.425Z,23.65
2022-08-19T04:40:33.381Z,23.64
2022-08-19T04:43:02.286Z,23.65
2022-08-19T04:45:32.727Z,23.68
2022-08-19T04:48:26.932Z,23.67
2022-08-19T04:51:00.799Z,23.63
2022-08-19T04:53:35.539Z,23.65
2022-08-19T04:56:14.888Z,23.63
2022-08-19T04:58:45.314Z,23.62
2022-08-19T05:01:20.063Z,23.58
2022-08-19T05:03:48.620Z,23.60
2022-08-19T05:06:17.679Z,23.61
2022-08-19T05:08:45.840Z,23.63
2022-08-19T05:11:22.439Z,23.70
2022-08-19T05:13:53.957Z,23.80
2022-08-19T05:16:24.056Z,23.89
2022-08-19T05:19:10.209Z,23.98
2022-08-19T05:21:56.332Z,24.02
2022-08-19T05:24:24.971Z,23.99
2022-08-19T05:26:57.705Z,23.99
2022-08-19T05:29:27.717Z,23.98
2022-08-19T05:32:06.493Z,23.91
2022-08-19T05:34:36.103Z,23.88
2022-08-19T05:37:05.870Z,23.87
2022-08-19T05:39:36.207Z,23.86
2022-08-19T05:42:10.116Z,23.86
2022-08-19T05:44:41.175Z,23.87
2022-08-19T05:47:10.266Z,23.88
2022-08-19T05:49:38.671Z,23.91
2022-08-19T05:52:08.926Z,23.92
2022-08-19T05:54:39.245Z,23.92
2022-08-19T05:57:07.136Z,23.93
2022-08-19T05:59:39.614Z,23.93
2022-08-19T06:02:08.761Z,23.93
2022-08-19T06:04:36.726Z,23.96
2022-08-19T06:07:12.337Z,24.02
2022-08-19T06:09:43.693Z,24.08
2022-08-19T06:12:30.060Z,24.15
2022-08-19T06:15:01.036Z,24.21
2022-08-19T06:17:31.941Z,24.25
2022-08-19T06:20:11.236Z,24.27
2022-08-19T06:22:43.248Z,24.32
2022-08-19T06:25:11.501Z,24.36
2022-08-19T06:27:48.354Z,24.42
2022-08-19T06:30:26.788Z,24.50
2022-08-19T06:32:54.851Z,24.58
2022-08-19T06:35:22.520Z,24.66
2022-08-19T06:37:51.187Z,24.71
2022-08-19T06:40:18.902Z,24.79
2022-08-19T06:42:55.011Z,24.88
2022-08-19T06:45:24.813Z,24.97
2022-08-19T06:47:57.152Z,25.04
2022-08-19T06:50:26.203Z,25.17
2022-08-19T06:52:55.530Z,25.27
2022-08-19T06:55:23.362Z,25.34
2022-08-19T06:57:54.714Z,25.37
2022-08-19T07:00:22.441Z,25.38
2022-08-19T07:02:55.817Z,25.43
2022-08-19T07:05:27.055Z,25.48
2022-08-19T07:07:57.537Z,25.51
2022-08-19T07:10:26.595Z,25.50
2022-08-19T07:12:55.260Z,25.52
2022-08-19T07:15:22.876Z,25.51
2022-08-19T07:17:52.533Z,25.51
2022-08-19T07:20:20.934Z,25.50
2022-08-19T07:22:49.374Z,25.48
2022-08-19T07:25:19.123Z,25.45
2022-08-19T07:27:46.631Z,25.48
2022-08-19T07:30:23.550Z,25.49
2022-08-19T07:32:53.976Z,25.53
2022-08-19T07:35:21.768Z,25.56
2022-08-19T07:37:49.345Z,25.65
2022-08-19T07:40:17.118Z,25.71
2022-08-19T07:42:44.713Z,25.79
2022-08-19T07:45:12.491Z,25.85
2022-08-19T07:47:48.288Z,25.93
2022-08-19T07:50:21.086Z,26.01
2022-08-19T07:52:51.065Z,26.13
2022-08-19T07:55:41.202Z,26.24
2022-08-19T07:58:11.227Z,26.41
2022-08-19T08:00:38.906Z,26.53
2022-08-19T08:03:06.594Z,26.67
2022-08-19T08:05:52.425Z,26.79
2022-08-19T08:08:44.330Z,26.96
2022-08-19T08:11:21.327Z,27.20
2022-08-19T08:14:00.723Z,27.46
2022-08-19T08:16:47.333Z,27.75
2022-08-19T08:19:25.472Z,28.07
2022-08-19T08:21:55.351Z,28.38
2022-08-19T08:24:23.426Z,28.77
2022-08-19T08:26:59.845Z,29.09
2022-08-19T08:29:34.746Z,29.36
2022-08-19T08:32:14.823Z,29.58
2022-08-19T08:34:43.604Z,29.74
2022-08-19T08:37:11.247Z,29.82
2022-08-19T08:39:39.864Z,30.12
2022-08-19T08:42:33.973Z,30.82
2022-08-19T08:45:19.257Z,31.31
2022-08-19T08:47:52.306Z,31.72
2022-08-19T08:50:23.892Z,32.25
2022-08-19T08:52:58.388Z,32.65
2022-08-19T08:55:36.595Z,32.88
2022-08-19T08:58:15.094Z,33.08
2022-08-19T09:00:46.799Z,33.47
2022-08-19T09:03:27.392Z,33.63
2022-08-19T09:06:12.009Z,33.72
2022-08-19T09:09:03.447Z,33.91
2022-08-19T09:11:41.927Z,33.87
2022-08-19T09:14:40.609Z,33.80
2022-08-19T09:17:10.679Z,33.64
2022-08-19T09:19:51.763Z,33.82
2022-08-19T09:22:25.374Z,33.97
2022-08-19T09:24:53.731Z,33.95
2022-08-19T09:27:42.519Z,34.01
2022-08-19T09:30:17.346Z,33.95
2022-08-19T09:32:45.792Z,33.78
2022-08-19T09:35:15.216Z,33.79
2022-08-19T09:37:44.916Z,33.74
2022-08-19T09:40:13.722Z,33.57
2022-08-19T09:42:50.426Z,33.71
2022-08-19T09:45:23.234Z,33.52
2022-08-19T09:47:54.504Z,33.60
2022-08-19T09:50:24.143Z,33.66
2022-08-19T09:52:57.442Z,33.52
2022-08-19T09:55:31.160Z,33.36
2022-08-19T09:58:03.001Z,33.33
2022-08-19T10:00:34.785Z,33.40
2022-08-19T10:03:02.234Z,33.14
2022-08-19T10:05:49.262Z,32.95
2022-08-19T10:08:20.580Z,32.67
2022-08-19T10:10:49.786Z,32.51
2022-08-19T10:13:32.904Z,32.45
2022-08-19T10:16:10.313Z,32.53
2022-08-19T10:18:38.957Z,32.63
2022-08-19T10:21:15.602Z,32.31
2022-08-19T10:23:46.450Z,32.15
2022-08-19T10:26:24.409Z,32.05
2022-08-19T10:28:55.074Z,31.95
2022-08-19T10:32:01.215Z,31.91
2022-08-19T10:34:27.492Z,31.88
2022-08-19T10:37:01.120Z,31.75
2022-08-19T10:39:32.641Z,31.72
2022-08-19T10:42:14.488Z,31.66
2022-08-19T10:44:42.955Z,31.74
2022-08-19T10:47:17.504Z,31.62
2022-08-19T10:50:14.154Z,31.39
2022-08-19T10:52:49.266Z,31.40
2022-08-19T10:55:40.014Z,31.35
2022-08-19T10:58:23.329Z,31.18
2022-08-19T11:00:56.409Z,30.98
2022-08-19T11:03:25.017Z,30.83
2022-08-19T11:06:02.686Z,30.65
2022-08-19T11:08:31.825Z,30.49
2022-08-19T11:11:02.497Z,30.49
2022-08-19T11:13:38.951Z,30.33
2022-08-19T11:16:19.467Z,30.24
2022-08-19T11:18:52.549Z,30.19
2022-08-19T11:21:28.574Z,30.15
2022-08-19T11:23:59.071Z,30.17
2022-08-19T11:26:29.308Z,30.34
2022-08-19T11:28:58.021Z,30.60
2022-08-19T11:31:29.447Z,30.68
2022-08-19T11:34:02.740Z,30.47
2022-08-19T11:36:32.602Z,30.34
2022-08-19T11:39:00.468Z,30.32
2022-08-19T11:41:28.488Z,30.36
2022-08-19T11:43:56.426Z,30.25
2022-08-19T11:46:30.688Z,30.25
2022-08-19T11:49:00.557Z,30.32
2022-08-19T11:51:29.158Z,30.33
2022-08-19T11:53:58.815Z,30.31
2022-08-19T11:56:30.122Z,30.27
2022-08-19T11:58:58.127Z,30.19
2022-08-19T12:01:27.485Z,30.17
2022-08-19T12:03:56.634Z,30.21
2022-08-19T12:06:30.441Z,30.15
2022-08-19T12:09:03.920Z,30.14
2022-08-19T12:11:34.378Z,30.27
2022-08-19T12:14:02.569Z,30.33
2022-08-19T12:16:31.957Z,30.37
2022-08-19T12:19:05.079Z,30.35
2022-08-19T12:21:35.275Z,30.37
2022-08-19T12:24:05.622Z,30.31
2022-08-19T12:26:34.256Z,30.26
2022-08-19T12:29:04.327Z,30.27
2022-08-19T12:31:32.365Z,30.30
2022-08-19T12:34:00.117Z,30.35
2022-08-19T12:36:27.662Z,30.38
2022-08-19T12:38:55.313Z,30.42
2022-08-19T12:41:23.536Z,30.50
2022-08-19T12:43:51.366Z,30.38
2022-08-19T12:46:22.308Z,30.30
2022-08-19T12:48:55.374Z,30.23
2022-08-19T12:51:24.015Z,30.18
2022-08-19T12:53:51.510Z,30.24
2022-08-19T12:56:23.178Z,30.19
2022-08-19T12:58:53.004Z,30.13
2022-08-19T13:01:23.003Z,30.11
2022-08-19T13:03:53.719Z,30.02
2022-08-19T13:06:21.855Z,29.96
2022-08-19T13:08:49.382Z,29.99
2022-08-19T13:11:20.031Z,29.96
2022-08-19T13:13:49.892Z,29.90
2022-08-19T13:16:18.482Z,29.84
2022-08-19T13:18:54.112Z,29.77
2022-08-19T13:21:24.261Z,29.74
2022-08-19T13:23:52.892Z,29.67
2022-08-19T13:26:20.555Z,29.46
2022-08-19T13:29:07.065Z,29.40
2022-08-19T13:31:55.754Z,29.30
2022-08-19T13:34:34.238Z,29.25
2022-08-19T13:37:05.900Z,29.17
2022-08-19T13:39:34.662Z,29.11
2022-08-19T13:42:05.990Z,29.07
2022-08-19T13:44:33.522Z,29.03
2022-08-19T13:47:10.019Z,28.98
2022-08-19T13:49:37.890Z,28.90
2022-08-19T13:52:06.964Z,28.90
2022-08-19T13:54:34.556Z,28.89
2022-08-19T13:57:09.698Z,28.89
2022-08-19T13:59:37.411Z,28.82
2022-08-19T14:02:06.694Z,28.80
2022-08-19T14:04:34.179Z,28.80
2022-08-19T14:07:02.821Z,28.73
2022-08-19T14:09:30.921Z,28.68
2022-08-19T14:11:58.765Z,28.68
2022-08-19T14:14:26.289Z,28.61
2022-08-19T14:16:53.810Z,28.58
2022-08-19T14:19:21.311Z,28.56
2022-08-19T14:21:49.186Z,28.55
2022-08-19T14:24:16.738Z,28.52
2022-08-19T14:26:44.247Z,28.55
2022-08-19T14:29:11.740Z,28.53
2022-08-19T14:31:43.661Z,28.52
2022-08-19T14:34:12.172Z,28.53
2022-08-19T14:36:39.976Z,28.52
2022-08-19T14:39:10.707Z,28.47
2022-08-19T14:41:41.084Z,28.48
2022-08-19T14:44:11.211Z,28.47
2022-08-19T14:46:38.753Z,28.43
2022-08-19T14:49:09.483Z,28.40
2022-08-19T14:51:37.215Z,28.37
2022-08-19T14:54:04.971Z,28.34
2022-08-19T14:56:32.580Z,28.32
2022-08-19T14:59:02.203Z,28.32
2022-08-19T15:01:30.773Z,28.30
2022-08-19T15:03:58.307Z,28.29
2022-08-19T15:06:27.033Z,28.29
2022-08-19T15:08:56.098Z,28.26
2022-08-19T15:11:28.991Z,28.25
2022-08-19T15:13:57.544Z,28.24
2022-08-19T15:16:26.530Z,28.24
2022-08-19T15:18:58.003Z,28.19
2022-08-19T15:21:27.056Z,28.13
2022-08-19T15:23:57.297Z,28.11
2022-08-19T15:26:26.937Z,28.07
2022-08-19T15:28:54.912Z,28.06
2022-08-19T15:31:28.189Z,28.00
2022-08-19T15:33:59.503Z,27.94
2022-08-19T15:36:29.126Z,27.91
2022-08-19T15:38:57.344Z,27.83
2022-08-19T15:41:28.306Z,27.84
2022-08-19T15:44:04.641Z,27.79
2022-08-19T15:46:33.993Z,27.75
2022-08-19T15:49:01.601Z,27.66
2022-08-19T15:51:35.641Z,27.61
2022-08-19T15:54:09.985Z,27.54
2022-08-19T15:57:07.298Z,27.48
2022-08-19T15:59:54.750Z,27.38
2022-08-19T16:02:46.227Z,27.22
2022-08-19T16:05:35.981Z,27.21
2022-08-19T16:08:04.010Z,27.08
2022-08-19T16:10:31.614Z,27.03
2022-08-19T16:12:59.462Z,26.94
2022-08-19T16:15:29.192Z,26.87
2022-08-19T16:17:58.509Z,26.80
2022-08-19T16:20:28.961Z,26.75
2022-08-19T16:22:58.755Z,26.68
2022-08-19T16:25:28.798Z,26.63
2022-08-19T16:28:07.571Z,26.56
2022-08-19T16:30:39.132Z,26.47
2022-08-19T16:33:08.675Z,26.39
2022-08-19T16:35:39.659Z,26.30
2022-08-19T16:38:07.256Z,26.21
2022-08-19T16:40:35.415Z,26.10
2022-08-19T16:43:03.446Z,26.07
2022-08-19T16:45:31.061Z,26.02
2022-08-19T16:47:58.606Z,25.95
2022-08-19T16:50:47.850Z,25.87
2022-08-19T16:53:17.957Z,25.78
2022-08-19T16:55:51.111Z,25.69
2022-08-19T16:58:19.287Z,25.60
2022-08-19T17:00:48.792Z,25.53
2022-08-19T17:03:18.118Z,25.42
2022-08-19T17:05:53.827Z,25.33
2022-08-19T17:08:22.985Z,25.25
2022-08-19T17:11:16.607Z,25.21
2022-08-19T17:13:39.216Z,25.12
2022-08-19T17:16:08.475Z,25.01
2022-08-19T17:18:35.937Z,24.92
2022-08-19T17:21:03.588Z,24.81
2022-08-19T17:23:42.686Z,24.81
2022-08-19T17:26:18.129Z,24.75
2022-08-19T17:28:52.034Z,24.68
2022-08-19T17:31:23.376Z,24.60
2022-08-19T17:33:52.089Z,24.55
2022-08-19T17:36:24.178Z,24.50
2022-08-19T17:38:55.536Z,24.48
2022-08-19T17:41:27.582Z,24.43
2022-08-19T17:43:55.079Z,24.42
2022-08-19T17:46:22.665Z,24.39
2022-08-19T17:48:53.022Z,24.34
2022-08-19T17:51:27.633Z,24.35
2022-08-19T17:53:55.271Z,24.32
2022-08-19T17:56:24.980Z,24.27
2022-08-19T17:59:00.315Z,24.25
2022-08-19T18:01:51.929Z,24.20
2022-08-19T18:04:20.401Z,24.13
2022-08-19T18:06:53.248Z,24.13
2022-08-19T18:09:24.374Z,24.04
2022-08-19T18:11:54.719Z,24.04
2022-08-19T18:14:32.055Z,23.99
2022-08-19T18:17:06.470Z,23.93
2022-08-19T18:19:41.209Z,23.91
2022-08-19T18:22:27.843Z,23.90
2022-08-19T18:24:57.894Z,23.92
2022-08-19T18:27:28.025Z,23.93
2022-08-19T18:29:59.963Z,23.94
2022-08-19T18:32:40.084Z,23.99
2022-08-19T18:35:17.434Z,24.02
2022-08-19T18:37:46.149Z,24.04
2022-08-19T18:40:37.295Z,24.03
2022-08-19T18:43:25.022Z,23.99
2022-08-19T18:46:10.893Z,23.94
2022-08-19T18:48:58.490Z,23.88
2022-08-19T18:51:30.330Z,23.79
2022-08-19T18:53:59.212Z,23.70
2022-08-19T18:56:32.038Z,23.63
2022-08-19T18:59:02.528Z,23.55
2022-08-19T19:01:35.682Z,23.49
2022-08-19T19:04:10.866Z,23.43
2022-08-19T19:06:42.423Z,23.35
2022-08-19T19:09:17.793Z,23.35
2022-08-19T19:11:51.613Z,23.33
2022-08-19T19:14:47.787Z,23.31
2022-08-19T19:17:15.224Z,23.27
2022-08-19T19:19:44.937Z,23.25
2022-08-19T19:22:17.707Z,23.23
2022-08-19T19:24:45.571Z,23.23
2022-08-19T19:27:15.917Z,23.19
2022-08-19T19:29:43.461Z,23.17
2022-08-19T19:32:19.793Z,23.15
2022-08-19T19:34:47.867Z,23.11
2022-08-19T19:37:16.828Z,23.11
2022-08-19T19:39:45.972Z,23.07
2022-08-19T19:42:21.380Z,23.05
2022-08-19T19:44:52.094Z,23.02
2022-08-19T19:47:20.227Z,23.02
2022-08-19T19:52:40.493Z,22.98
2022-08-19T19:55:10.100Z,22.88
2022-08-19T19:57:39.503Z,22.91
2022-08-19T20:00:09.112Z,22.90
2022-08-19T20:02:36.589Z,22.90
2022-08-19T20:05:05.131Z,22.89
2022-08-19T20:07:54.657Z,22.87
2022-08-19T20:10:22.377Z,22.84
2022-08-19T20:12:55.095Z,22.81
2022-08-19T20:15:24.459Z,22.80
2022-08-19T20:17:51.900Z,22.79
2022-08-19T20:20:19.636Z,22.76
2022-08-19T20:22:47.839Z,22.68
2022-08-19T20:25:18.038Z,22.70
2022-08-19T20:27:50.512Z,22.68
2022-08-19T20:30:20.538Z,22.65
2022-08-19T20:32:49.866Z,22.62
2022-08-19T20:35:19.567Z,22.59
2022-08-19T20:37:47.427Z,22.55
2022-08-19T20:40:16.935Z,22.51
2022-08-19T20:42:50.864Z,22.50
2022-08-19T20:45:32.316Z,22.48
2022-08-19T20:48:03.617Z,22.47
2022-08-19T20:50:36.620Z,22.45
2022-08-19T20:53:16.533Z,22.45
2022-08-19T20:55:46.386Z,22.46
2022-08-19T20:58:15.043Z,22.45
2022-08-19T21:00:46.152Z,22.48
2022-08-19T21:03:18.164Z,22.48
2022-08-19T21:05:48.919Z,22.48
2022-08-19T21:08:18.601Z,22.49
2022-08-19T21:10:48.187Z,22.51
2022-08-19T21:13:17.210Z,22.52
2022-08-19T21:15:44.982Z,22.55
2022-08-19T21:18:14.573Z,22.57
2022-08-19T21:20:43.401Z,22.58
2022-08-19T21:23:14.421Z,22.59
2022-08-19T21:25:43.558Z,22.61
2022-08-19T21:28:34.994Z,22.61
2022-08-19T21:31:06.654Z,22.61
2022-08-19T21:33:34.930Z,22.61
2022-08-19T21:36:05.179Z,22.62
2022-08-19T21:38:33.384Z,22.61
2022-08-19T21:41:05.768Z,22.59
2022-08-19T21:43:35.092Z,22.59
2022-08-19T21:46:02.708Z,22.59
2022-08-19T21:48:30.734Z,22.59
2022-08-19T21:50:58.203Z,22.57
2022-08-19T21:53:25.945Z,22.56
2022-08-19T21:56:01.206Z,22.54
2022-08-19T21:58:30.661Z,22.54
2022-08-19T22:01:00.312Z,22.53
2022-08-19T22:03:28.905Z,22.51
2022-08-19T22:05:56.849Z,22.51
2022-08-19T22:08:24.887Z,22.48
2022-08-19T22:10:52.548Z,22.47
2022-08-19T22:13:20.728Z,22.46
2022-08-19T22:15:48.999Z,22.47
2022-08-19T22:18:18.073Z,22.47
2022-08-19T22:20:48.107Z,22.44
2022-08-19T22:23:15.567Z,22.49
2022-08-19T22:25:48.201Z,22.48
2022-08-19T22:28:18.911Z,22.45
2022-08-19T22:30:52.992Z,22.43
2022-08-19T22:33:23.759Z,22.44
2022-08-19T22:35:53.876Z,22.41
2022-08-19T22:38:22.362Z,22.40
2022-08-19T22:40:52.017Z,22.40
2022-08-19T22:43:23.290Z,22.39
2022-08-19T22:45:53.546Z,22.41
2022-08-19T22:48:23.669Z,22.42
2022-08-19T22:51:11.672Z,22.42
2022-08-19T22:53:42.766Z,22.41
2022-08-19T22:56:15.350Z,22.42
2022-08-19T22:58:43.810Z,22.43
2022-08-19T23:01:27.428Z,22.41
2022-08-19T23:04:00.161Z,22.38
2022-08-19T23:06:33.519Z,22.35
2022-08-19T23:09:07.286Z,22.22
2022-08-19T23:11:39.854Z,22.23
2022-08-19T23:14:11.604Z,22.20
2022-08-19T23:16:41.641Z,22.17
2022-08-19T23:19:10.989Z,22.14
2022-08-19T23:21:43.409Z,22.13
2022-08-19T23:24:13.008Z,22.10
2022-08-19T23:27:00.561Z,22.09
2022-08-19T23:29:50.880Z,22.09
2022-08-19T23:32:19.985Z,22.06
2022-08-19T23:34:47.898Z,22.05
2022-08-19T23:37:15.928Z,22.03
2022-08-19T23:39:45.249Z,21.97
2022-08-19T23:42:13.902Z,21.99
2022-08-19T23:44:51.521Z,21.93
2022-08-19T23:47:23.829Z,21.89
2022-08-19T23:49:51.448Z,21.83
2022-08-19T23:52:19.504Z,21.86
2022-08-19T23:54:48.008Z,21.86
2022-08-19T23:57:15.579Z,21.85
2022-08-19T23:59:46.502Z,21.83
